Atlantic - Newfoundland: Past 24 Hour Conditions

 

Nickerson Bank - 44251

03:00 AM ADT 01 November 2014Buoy position: 46.45N 53.38W
This table is a summary of hourly weather conditions for the past 24 hours.
Date / Time
(ADT)
Wind(knots) Wave height(m) Wave period(s) Pressure(kPa) Air tempC) Water tempC)
01 November 2014
3:00 WSW 2 gust 2 2.0 8.0 102.2 9 11
2:00 WSW 6 gust 8 2.1 8.0 102.2 9 11
1:00 SE 2 gust 4 2.0 9.0 102.2 9 11
0:00 W 2 gust 4 1.9 9.0 102.2 9 11
31 October 2014
23:00 SSW 4 gust 6 1.8 10.0 102.2 9 11
22:00 W 4 gust 6 2.0 10.0 102.2 9 11
21:00 WNW 2 gust 4 1.8 10.0 102.1 9 11
20:00 NW 8 gust 10 2.2 9.0 102.0 9 11
19:00 NW 8 gust 12 2.1 9.0 102.0 9 11
18:00 WNW 8 gust 14 2.1 9.0 101.9 9 11
17:00 WNW 10 gust 12 2.1 8.0 101.8 9 11
16:00 WNW 10 gust 12 2.1 10.0 101.8 9 11
15:00 WNW 12 gust 16 2.0 8.0 101.6 9 11
14:00 WNW 14 gust 16 2.1 8.0 101.5 9 11
13:00 W 16 gust 19 2.1 8.0 101.5 9 11
12:00 WNW 16 gust 19 1.9 8.0 101.5 9 11
11:00 W 16 gust 19 2.0 8.0 101.4 9 11
10:00 WNW 14 gust 16 1.9 8.0 101.4 10 11
9:00 WNW 12 gust 16 1.8 8.0 101.3 10 11
8:00 WNW 12 gust 16 1.9 8.0 101.2 10 11
7:00 WNW 14 gust 18 1.9 8.0 101.1 10 11
6:00 W 12 gust 16 1.9 8.0 101.1 10 11
5:00 W 10 gust 12 2.1 8.0 101.0 10 11
4:00 WNW 12 gust 16 2.2 7.0 100.9 10 11
3:00 W 12 gust 14 2.1 8.0 100.9 10 11
 
Map of Atlantic - Newfoundland marine weather areas Southwestern Grand Banks - 44138 Banquereau - 44139 Tail of the Bank - 44140 Nickerson Bank - 44251 Northeast Burgeo Bank - 44255 Blanc-Sablon Airport Cap Whittle Chevery Natashquan Airport Heath Point Miscou Island Grand Étang Ingonish Beach North Mountain St.Paul Island J.A. Douglas McCurdy Sydney Airport Charlottetown Airport East Point North Cape Argentia Bonavista Burgeo Cape Race Corner Brook Daniel's Harbour Englee Ferolle Point La Scie Port aux Basques Rocky Harbour Sagona Island St. Anthony Airport St. John's Int'l Airport St. Lawrence Stephenville Airport Twillingate Winterland Wreckhouse Cartwright Airport Mary's Harbour Grates Cove Pool's Island Marticot Island Long Pond Îles de la Madeleine Airport
Legend: buoyBuoy land stationLand Station